createdAt,value
2016-06-01T00:00:56.744Z,0
2016-06-01T00:01:56.731Z,0
2016-06-01T00:02:56.562Z,0
2016-06-01T00:03:56.689Z,0
2016-06-01T00:04:56.536Z,0
2016-06-01T00:05:56.663Z,0
2016-06-01T00:06:56.494Z,0
2016-06-01T00:07:56.638Z,0
2016-06-01T00:08:56.999Z,0
2016-06-01T00:09:56.618Z,0
2016-06-01T00:10:56.647Z,0
2016-06-01T00:11:56.628Z,0
2016-06-01T00:12:56.643Z,0
2016-06-01T00:13:56.639Z,0
2016-06-01T00:14:56.655Z,0
2016-06-01T00:15:56.635Z,0
2016-06-01T00:16:56.632Z,0
2016-06-01T00:17:56.473Z,0
2016-06-01T00:18:56.469Z,0
2016-06-01T00:19:56.602Z,0
2016-06-01T00:20:56.592Z,0
2016-06-01T00:21:56.583Z,0
2016-06-01T00:22:56.573Z,0
2016-06-01T00:23:56.939Z,0
2016-06-01T00:24:56.552Z,0
2016-06-01T00:25:56.525Z,0
2016-06-01T00:26:56.513Z,0
2016-06-01T00:27:56.329Z,0
2016-06-01T00:28:56.490Z,0
2016-06-01T00:29:56.290Z,0
2016-06-01T00:30:56.433Z,0
2016-06-01T00:31:56.421Z,0
2016-06-01T00:32:56.408Z,0
2016-06-01T00:33:56.380Z,0
2016-06-01T00:34:56.367Z,0
2016-06-01T00:35:56.339Z,0
2016-06-01T00:36:56.342Z,0
2016-06-01T00:37:56.297Z,0
2016-06-01T00:38:56.456Z,0
2016-06-01T00:39:56.256Z,0
2016-06-01T00:40:56.243Z,0
2016-06-01T00:41:56.230Z,0
2016-06-01T00:42:56.217Z,0
2016-06-01T00:43:56.188Z,0
2016-06-01T00:44:56.035Z,0
2016-06-01T00:45:56.006Z,0
2016-06-01T00:46:56.040Z,0
2016-06-01T00:47:55.824Z,0
2016-06-01T00:48:56.124Z,0
2016-06-01T00:49:56.096Z,0
2016-06-01T00:50:56.066Z,0
2016-06-01T00:51:55.897Z,0
2016-06-01T00:52:55.885Z,0
2016-06-01T00:53:56.059Z,0
2016-06-01T00:54:55.999Z,0
2016-06-01T00:55:55.987Z,0
2016-06-01T00:56:55.817Z,0
2016-06-01T00:57:55.788Z,0
2016-06-01T00:58:55.776Z,0
2016-06-01T00:59:55.918Z,0
2016-06-01T01:00:55.593Z,0
2016-06-01T01:01:55.893Z,0
2016-06-01T01:02:55.709Z,0
2016-06-01T01:03:55.836Z,0
2016-06-01T01:04:55.823Z,0
2016-06-01T01:05:55.497Z,0
2016-06-01T01:06:55.781Z,0
2016-06-01T01:07:55.612Z,0
2016-06-01T01:08:55.506Z,0
2016-06-01T01:09:55.586Z,0
2016-06-01T01:10:55.714Z,0
2016-06-01T01:11:55.686Z,0
2016-06-01T01:12:55.672Z,0
2016-06-01T01:13:55.660Z,0
2016-06-01T01:14:55.506Z,0
2016-06-01T01:15:55.634Z,0
2016-06-01T01:16:55.605Z,0
2016-06-01T01:17:55.577Z,0
2016-06-01T01:18:55.579Z,0
2016-06-01T01:19:55.551Z,0
2016-06-01T01:20:55.522Z,0
2016-06-01T01:21:55.525Z,0
2016-06-01T01:22:55.496Z,0
2016-06-01T01:23:55.546Z,0
2016-06-01T01:24:55.299Z,0
2016-06-01T01:25:55.426Z,0
2016-06-01T01:26:55.116Z,0
2016-06-01T01:27:55.104Z,0
2016-06-01T01:28:55.388Z,0
2016-06-01T01:29:55.374Z,0
2016-06-01T01:30:55.345Z,0
2016-06-01T01:31:55.333Z,0
2016-06-01T01:32:55.304Z,0
2016-06-01T01:33:55.292Z,0
2016-06-01T01:34:55.294Z,0
2016-06-01T01:35:55.250Z,0
2016-06-01T01:36:55.237Z,0
2016-06-01T01:37:55.225Z,0
2016-06-01T01:38:56.211Z,0
2016-06-01T01:39:55.183Z,0
2016-06-01T01:40:55.169Z,0
2016-06-01T01:41:55.141Z,0
2016-06-01T01:42:55.144Z,0
2016-06-01T01:43:55.116Z,0
2016-06-01T01:44:54.946Z,0
2016-06-01T01:45:55.074Z,0
2016-06-01T01:46:55.061Z,0
2016-06-01T01:47:55.033Z,0
2016-06-01T01:48:55.019Z,0
2016-06-01T01:49:55.007Z,0
2016-06-01T01:50:54.978Z,0
2016-06-01T01:51:54.808Z,0
2016-06-01T01:52:54.952Z,0
2016-06-01T01:53:55.485Z,0
2016-06-01T01:54:54.910Z,0
2016-06-01T01:55:54.898Z,0
2016-06-01T01:56:54.869Z,0
2016-06-01T01:57:54.699Z,0
2016-06-01T01:58:54.843Z,0
2016-06-01T01:59:54.815Z,0
2016-06-01T02:00:54.645Z,0
2016-06-01T02:01:54.476Z,0
2016-06-01T02:02:54.775Z,0
2016-06-01T02:03:54.763Z,0
2016-06-01T02:04:54.734Z,0
2016-06-01T02:05:54.737Z,0
2016-06-01T02:06:54.709Z,0
2016-06-01T02:07:54.680Z,0
2016-06-01T02:08:55.588Z,0
2016-06-01T02:09:54.482Z,0
2016-06-01T02:10:54.625Z,0
2016-06-01T02:11:54.628Z,0
2016-06-01T02:12:54.444Z,0
2016-06-01T02:13:54.414Z,0
2016-06-01T02:14:54.558Z,0
2016-06-01T02:15:54.530Z,0
2016-06-01T02:16:54.517Z,0
2016-06-01T02:17:54.363Z,0
2016-06-01T02:18:54.475Z,0
2016-06-01T02:19:54.462Z,0
2016-06-01T02:20:54.293Z,0
2016-06-01T02:21:54.436Z,0
2016-06-01T02:22:54.282Z,0
2016-06-01T02:23:54.239Z,0
2016-06-01T02:24:54.397Z,0
2016-06-01T02:25:54.368Z,0
2016-06-01T02:26:54.324Z,0
2016-06-01T02:27:54.312Z,0
2016-06-01T02:28:54.298Z,0
2016-06-01T02:29:54.130Z,0
2016-06-01T02:30:54.118Z,0
2016-06-01T02:31:54.103Z,0
2016-06-01T02:32:54.232Z,0
2016-06-01T02:33:53.890Z,0
2016-06-01T02:34:54.034Z,0
2016-06-01T02:35:54.021Z,0
2016-06-01T02:36:53.851Z,0
2016-06-01T02:37:54.135Z,0
2016-06-01T02:38:54.091Z,0
2016-06-01T02:39:54.125Z,0
2016-06-01T02:40:54.097Z,0
2016-06-01T02:41:54.068Z,0
2016-06-01T02:42:53.884Z,0
2016-06-01T02:43:53.886Z,0
2016-06-01T02:44:54.013Z,0
2016-06-01T02:45:53.860Z,0
2016-06-01T02:46:53.972Z,0
2016-06-01T02:47:53.803Z,0
2016-06-01T02:48:53.931Z,0
2016-06-01T02:49:53.839Z,0
2016-06-01T02:50:54.076Z,0
2016-06-01T02:51:54.016Z,0
2016-06-01T02:52:53.770Z,0
2016-06-01T02:53:54.350Z,0
2016-06-01T02:54:53.728Z,0
2016-06-01T02:55:53.872Z,0
2016-06-01T02:56:53.640Z,0
2016-06-01T02:57:53.767Z,0
2016-06-01T02:58:53.755Z,0
2016-06-01T02:59:53.726Z,0
2016-06-01T03:00:53.729Z,0
2016-06-01T03:01:53.716Z,0
2016-06-01T03:02:53.687Z,0
2016-06-01T03:03:53.517Z,0
2016-06-01T03:04:53.646Z,0
2016-06-01T03:05:53.648Z,0
2016-06-01T03:06:53.604Z,0
2016-06-01T03:07:53.592Z,0
2016-06-01T03:08:53.672Z,0
2016-06-01T03:09:53.409Z,0
2016-06-01T03:10:53.395Z,0
2016-06-01T03:11:53.524Z,5
2016-06-01T03:12:53.511Z,5
2016-06-01T03:13:53.498Z,5
2016-06-01T03:14:53.469Z,5
2016-06-01T03:15:53.300Z,5
2016-06-01T03:16:53.272Z,5
2016-06-01T03:17:53.415Z,5
2016-06-01T03:18:53.402Z,5
2016-06-01T03:19:53.374Z,5
2016-06-01T03:20:53.205Z,5
2016-06-01T03:21:53.332Z,5
2016-06-01T03:22:53.163Z,5
2016-06-01T03:23:53.306Z,0
2016-06-01T03:24:53.278Z,0
2016-06-01T03:25:53.108Z,0
2016-06-01T03:26:53.236Z,0
2016-06-01T03:27:53.239Z,5
2016-06-01T03:28:53.054Z,5
2016-06-01T03:29:53.197Z,5
2016-06-01T03:30:53.185Z,5
2016-06-01T03:31:53.157Z,5
2016-06-01T03:32:52.987Z,5
2016-06-01T03:33:52.973Z,10
2016-06-01T03:34:53.101Z,10
2016-06-01T03:35:52.932Z,10
2016-06-01T03:36:53.060Z,10
2016-06-01T03:37:53.063Z,10
2016-06-01T03:38:53.190Z,10
2016-06-01T03:39:53.020Z,10
2016-06-01T03:40:52.992Z,10
2016-06-01T03:41:52.995Z,10
2016-06-01T03:42:52.967Z,10
2016-06-01T03:43:52.939Z,5
2016-06-01T03:44:52.926Z,5
2016-06-01T03:45:52.911Z,5
2016-06-01T03:46:52.883Z,5
2016-06-01T03:47:52.870Z,5
2016-06-01T03:48:52.858Z,10
2016-06-01T03:49:52.827Z,15
2016-06-01T03:50:52.813Z,20
2016-06-01T03:51:52.536Z,20
2016-06-01T03:52:52.630Z,20
2016-06-01T03:53:53.512Z,20
2016-06-01T03:54:52.747Z,20
2016-06-01T03:55:52.718Z,15
2016-06-01T03:56:52.705Z,15
2016-06-01T03:57:52.692Z,20
2016-06-01T03:58:52.663Z,20
2016-06-01T03:59:52.650Z,20
2016-06-01T04:00:52.481Z,25
2016-06-01T04:01:52.624Z,30
2016-06-01T04:02:52.612Z,30
2016-06-01T04:03:52.583Z,35
2016-06-01T04:04:52.571Z,40
2016-06-01T04:05:52.400Z,50
2016-06-01T04:06:52.529Z,50
2016-06-01T04:07:52.516Z,45
2016-06-01T04:08:52.831Z,55
2016-06-01T04:09:52.474Z,65
2016-06-01T04:10:52.462Z,70
2016-06-01T04:11:52.276Z,70
2016-06-01T04:12:52.420Z,80
2016-06-01T04:13:52.110Z,85
2016-06-01T04:14:52.394Z,85
2016-06-01T04:15:52.225Z,85
2016-06-01T04:16:52.353Z,90
2016-06-01T04:17:52.198Z,95
2016-06-01T04:18:52.155Z,105
2016-06-01T04:19:52.157Z,105
2016-06-01T04:20:52.286Z,105
2016-06-01T04:21:52.100Z,95
2016-06-01T04:22:52.244Z,90
2016-06-01T04:23:53.074Z,80
2016-06-01T04:24:52.296Z,65
2016-06-01T04:25:52.188Z,55
2016-06-01T04:26:52.177Z,55
2016-06-01T04:27:52.163Z,80
2016-06-01T04:28:52.150Z,100
2016-06-01T04:29:52.137Z,105
2016-06-01T04:30:52.109Z,95
2016-06-01T04:31:52.079Z,85
2016-06-01T04:32:51.755Z,85
2016-06-01T04:33:52.054Z,80
2016-06-01T04:34:51.885Z,75
2016-06-01T04:35:52.013Z,65
2016-06-01T04:36:51.999Z,55
2016-06-01T04:37:51.987Z,55
2016-06-01T04:38:53.146Z,60
2016-06-01T04:39:51.805Z,60
2016-06-01T04:40:51.932Z,65
2016-06-01T04:41:51.763Z,60
2016-06-01T04:42:51.890Z,60
2016-06-01T04:43:51.878Z,70
2016-06-01T04:44:51.709Z,85
2016-06-01T04:45:51.867Z,80
2016-06-01T04:46:51.855Z,65
2016-06-01T04:47:51.811Z,55
2016-06-01T04:48:51.797Z,55
2016-06-01T04:49:51.770Z,60
2016-06-01T04:50:51.756Z,60
2016-06-01T04:51:51.789Z,60
2016-06-01T04:52:51.559Z,70
2016-06-01T04:53:51.405Z,90
2016-06-01T04:54:51.813Z,110
2016-06-01T04:55:51.520Z,130
2016-06-01T04:56:51.507Z,145
2016-06-01T04:57:51.478Z,155
2016-06-01T04:58:51.605Z,175
2016-06-01T04:59:51.594Z,215
2016-06-01T05:00:51.580Z,225
2016-06-01T05:01:51.567Z,240
2016-06-01T05:02:51.413Z,240
2016-06-01T05:03:51.416Z,240
2016-06-01T05:04:51.529Z,260
2016-06-01T05:05:51.499Z,280
2016-06-01T05:06:51.471Z,290
2016-06-01T05:07:51.458Z,285
2016-06-01T05:08:52.305Z,275
2016-06-01T05:09:51.683Z,270
2016-06-01T05:10:51.404Z,275
2016-06-01T05:11:51.234Z,265
2016-06-01T05:12:51.378Z,250
2016-06-01T05:13:51.349Z,255
2016-06-01T05:14:51.336Z,245
2016-06-01T05:15:51.323Z,240
2016-06-01T05:16:51.311Z,245
2016-06-01T05:17:51.126Z,220
2016-06-01T05:18:51.269Z,185
2016-06-01T05:19:51.256Z,160
2016-06-01T05:20:51.228Z,150
2016-06-01T05:21:51.231Z,125
2016-06-01T05:22:51.202Z,100
2016-06-01T05:23:51.032Z,95
2016-06-01T05:24:51.614Z,100
2016-06-01T05:25:51.163Z,105
2016-06-01T05:26:50.978Z,105
2016-06-01T05:27:51.122Z,110
2016-06-01T05:28:51.093Z,120
2016-06-01T05:29:50.939Z,120
2016-06-01T05:30:51.067Z,100
2016-06-01T05:31:51.054Z,85
2016-06-01T05:32:51.041Z,85
2016-06-01T05:33:51.013Z,90
2016-06-01T05:34:50.843Z,100
2016-06-01T05:35:50.971Z,100
2016-06-01T05:36:50.818Z,100
2016-06-01T05:37:50.946Z,105
2016-06-01T05:38:51.354Z,110
2016-06-01T05:39:51.076Z,110
2016-06-01T05:40:50.734Z,110
2016-06-01T05:41:50.737Z,115
2016-06-01T05:42:50.849Z,125
2016-06-01T05:43:50.836Z,130
2016-06-01T05:44:50.839Z,130
2016-06-01T05:45:50.810Z,130
2016-06-01T05:46:50.642Z,135
2016-06-01T05:47:50.784Z,140
2016-06-01T05:48:50.443Z,145
2016-06-01T05:49:50.853Z,155
2016-06-01T05:50:50.715Z,160
2016-06-01T05:51:50.701Z,170
2016-06-01T05:52:50.533Z,185
2016-06-01T05:53:51.253Z,210
2016-06-01T05:54:50.553Z,240
2016-06-01T05:55:50.650Z,275
2016-06-01T05:56:50.481Z,300
2016-06-01T05:57:50.608Z,320
2016-06-01T05:58:50.424Z,325
2016-06-01T05:59:50.567Z,340
2016-06-01T06:00:50.555Z,380
2016-06-01T06:01:50.385Z,405
2016-06-01T06:02:50.528Z,410
2016-06-01T06:03:50.500Z,400
2016-06-01T06:04:50.330Z,365
2016-06-01T06:05:50.457Z,340
2016-06-01T06:06:50.445Z,335
2016-06-01T06:07:50.416Z,340
2016-06-01T06:08:51.107Z,350
2016-06-01T06:09:53.796Z,355
2016-06-01T06:10:53.846Z,355
2016-06-01T06:11:50.365Z,350
2016-06-01T06:12:50.040Z,360
2016-06-01T06:13:50.168Z,370
2016-06-01T06:14:50.310Z,390
2016-06-01T06:15:54.344Z,395
2016-06-01T06:16:50.128Z,395
2016-06-01T06:17:50.115Z,380
2016-06-01T06:18:50.086Z,365
2016-06-01T06:19:50.230Z,345
2016-06-01T06:20:53.545Z,330
2016-06-01T06:21:50.063Z,320
2016-06-01T06:22:50.175Z,320
2016-06-01T06:23:50.179Z,320
2016-06-01T06:24:50.009Z,315
2016-06-01T06:25:49.981Z,315
2016-06-01T06:26:50.108Z,315
2016-06-01T06:27:50.095Z,320
2016-06-01T06:28:50.082Z,330
2016-06-01T06:29:49.914Z,335
2016-06-01T06:30:53.588Z,335
2016-06-01T06:31:50.027Z,320
2016-06-01T06:32:50.015Z,305
2016-06-01T06:33:50.018Z,290
2016-06-01T06:34:49.989Z,280
2016-06-01T06:35:52.930Z,270
2016-06-01T06:36:49.963Z,270
2016-06-01T06:37:49.935Z,270
2016-06-01T06:38:50.577Z,275
2016-06-01T06:39:50.330Z,290
2016-06-01T06:40:51.474Z,300
2016-06-01T06:41:49.743Z,310
2016-06-01T06:42:49.855Z,325
2016-06-01T06:43:49.857Z,355
2016-06-01T06:44:49.860Z,400
2016-06-01T06:45:52.315Z,440
2016-06-01T06:46:49.896Z,465
2016-06-01T06:47:49.681Z,485
2016-06-01T06:48:49.776Z,505
2016-06-01T06:49:49.607Z,515
2016-06-01T06:50:52.126Z,525
2016-06-01T06:51:49.613Z,530
2016-06-01T06:52:49.553Z,530
2016-06-01T06:53:49.508Z,530
2016-06-01T06:54:50.042Z,535
2016-06-01T06:55:51.920Z,535
2016-06-01T06:56:49.626Z,520
2016-06-01T06:57:49.317Z,510
2016-06-01T06:58:49.601Z,510
2016-06-01T06:59:49.588Z,535
2016-06-01T07:00:52.636Z,585
2016-06-01T07:01:49.546Z,600
2016-06-01T07:02:49.377Z,595
2016-06-01T07:03:49.520Z,570
2016-06-01T07:04:49.508Z,565
2016-06-01T07:05:53.245Z,565
2016-06-01T07:06:49.310Z,590
2016-06-01T07:07:49.468Z,595
2016-06-01T07:08:49.566Z,560
2016-06-01T07:09:49.724Z,535
2016-06-01T07:10:53.774Z,520
2016-06-01T07:11:49.245Z,500
2016-06-01T07:12:49.388Z,485
2016-06-01T07:13:49.360Z,470
2016-06-01T07:14:49.362Z,470
2016-06-01T07:15:53.537Z,480
2016-06-01T07:16:49.164Z,495
2016-06-01T07:17:49.308Z,510
2016-06-01T07:18:48.982Z,535
2016-06-01T07:19:49.126Z,565
2016-06-01T07:20:49.285Z,585
2016-06-01T07:21:49.240Z,605
2016-06-01T07:22:49.071Z,655
2016-06-01T07:23:49.105Z,740
2016-06-01T07:24:49.811Z,835
2016-06-01T07:25:51.783Z,870
2016-06-01T07:26:49.176Z,835
2016-06-01T07:27:49.163Z,790
2016-06-01T07:28:49.134Z,760
2016-06-01T07:29:48.981Z,730
2016-06-01T07:30:52.874Z,720
2016-06-01T07:31:49.095Z,710
2016-06-01T07:32:49.114Z,680
2016-06-01T07:33:49.086Z,675
2016-06-01T07:34:49.057Z,650
2016-06-01T07:35:52.653Z,595
2016-06-01T07:36:49.031Z,570
2016-06-01T07:37:49.018Z,565
2016-06-01T07:38:50.035Z,580
2016-06-01T07:39:50.179Z,615
2016-06-01T07:40:54.104Z,630
2016-06-01T07:41:48.951Z,625
2016-06-01T07:42:48.969Z,600
2016-06-01T07:43:48.941Z,570
2016-06-01T07:44:48.912Z,550
2016-06-01T07:45:52.226Z,535
2016-06-01T07:46:48.729Z,505
2016-06-01T07:47:48.873Z,455
2016-06-01T07:48:48.860Z,420
2016-06-01T07:49:48.691Z,390
2016-06-01T07:50:50.506Z,360
2016-06-01T07:51:48.665Z,355
2016-06-01T07:52:48.651Z,370
2016-06-01T07:53:48.811Z,390
2016-06-01T07:54:48.782Z,415
2016-06-01T07:55:53.520Z,430
2016-06-01T07:56:48.741Z,430
2016-06-01T07:57:48.728Z,470
2016-06-01T07:58:48.715Z,525
2016-06-01T07:59:48.686Z,545
2016-06-01T08:00:48.706Z,555
2016-06-01T08:01:48.660Z,585
2016-06-01T08:02:48.710Z,590
2016-06-01T08:03:48.650Z,595
2016-06-01T08:04:48.622Z,605
2016-06-01T08:05:52.515Z,615
2016-06-01T08:06:48.596Z,600
2016-06-01T08:07:48.583Z,585
2016-06-01T08:08:49.633Z,625
2016-06-01T08:09:49.744Z,660
2016-06-01T08:10:52.982Z,635
2016-06-01T08:11:48.531Z,575
2016-06-01T08:12:48.502Z,575
2016-06-01T08:13:48.333Z,595
2016-06-01T08:14:48.180Z,620
2016-06-01T08:15:52.105Z,635
2016-06-01T08:16:48.451Z,680
2016-06-01T08:17:48.485Z,715
2016-06-01T08:18:48.440Z,705
2016-06-01T08:19:48.099Z,610
2016-06-01T08:20:50.977Z,500
2016-06-01T08:21:48.402Z,445
2016-06-01T08:22:48.374Z,430
2016-06-01T08:23:48.751Z,435
2016-06-01T08:24:48.269Z,435
2016-06-01T08:25:48.523Z,420
2016-06-01T08:26:48.306Z,390
2016-06-01T08:27:48.418Z,370
2016-06-01T08:28:47.983Z,370
2016-06-01T08:29:48.564Z,380
2016-06-01T08:30:51.176Z,400
2016-06-01T08:31:48.242Z,420
2016-06-01T08:32:48.228Z,430
2016-06-01T08:33:48.058Z,425
2016-06-01T08:34:48.187Z,410
2016-06-01T08:35:48.174Z,390
2016-06-01T08:36:48.177Z,375
2016-06-01T08:37:48.133Z,380
2016-06-01T08:38:48.150Z,390
2016-06-01T08:39:48.857Z,370
2016-06-01T08:40:50.485Z,340
2016-06-01T08:41:48.080Z,310
2016-06-01T08:42:47.911Z,290
2016-06-01T08:43:48.055Z,305
2016-06-01T08:44:47.886Z,340
2016-06-01T08:45:48.482Z,395
2016-06-01T08:46:48.001Z,405
2016-06-01T08:47:47.988Z,420
2016-06-01T08:48:47.975Z,430
2016-06-01T08:49:47.962Z,430
2016-06-01T08:50:48.229Z,410
2016-06-01T08:51:47.935Z,425
2016-06-01T08:52:47.923Z,400
2016-06-01T08:53:48.785Z,430
2016-06-01T08:54:48.304Z,460
2016-06-01T08:55:49.915Z,450
2016-06-01T08:56:47.699Z,435
2016-06-01T08:57:47.687Z,475
2016-06-01T08:58:47.829Z,545
2016-06-01T08:59:47.644Z,570
2016-06-01T09:00:48.867Z,585
2016-06-01T09:01:47.775Z,640
2016-06-01T09:02:47.747Z,705
2016-06-01T09:03:47.593Z,755
2016-06-01T09:04:47.720Z,800
2016-06-01T09:05:47.723Z,780
2016-06-01T09:06:47.695Z,650
2016-06-01T09:07:47.541Z,600
2016-06-01T09:08:47.669Z,655
2016-06-01T09:09:47.655Z,600
2016-06-01T09:10:47.643Z,550
2016-06-01T09:11:47.614Z,550
2016-06-01T09:12:47.602Z,470
2016-06-01T09:13:47.605Z,365
2016-06-01T09:14:47.576Z,365
2016-06-01T09:15:47.423Z,395
2016-06-01T09:16:47.560Z,400
2016-06-01T09:17:47.571Z,425
2016-06-01T09:18:47.581Z,435
2016-06-01T09:19:47.641Z,445
2016-06-01T09:20:47.666Z,420
2016-06-01T09:21:47.600Z,425
2016-06-01T09:22:47.578Z,430
2016-06-01T09:23:47.434Z,415
2016-06-01T09:24:47.445Z,415
2016-06-01T09:25:47.581Z,430
2016-06-01T09:26:47.571Z,440
2016-06-01T09:27:47.546Z,425
2016-06-01T09:28:47.379Z,445
2016-06-01T09:29:47.510Z,465
2016-06-01T09:30:47.344Z,425
2016-06-01T09:31:47.332Z,390
2016-06-01T09:32:47.321Z,400
2016-06-01T09:33:47.310Z,435
2016-06-01T09:34:47.453Z,470
2016-06-01T09:35:47.442Z,460
2016-06-01T09:36:47.257Z,415
2016-06-01T09:37:47.401Z,420
2016-06-01T09:38:47.419Z,460
2016-06-01T09:39:47.125Z,505
2016-06-01T09:40:47.222Z,500
2016-06-01T09:41:47.351Z,460
2016-06-01T09:42:47.182Z,465
2016-06-01T09:43:47.184Z,485
2016-06-01T09:44:47.297Z,480
2016-06-01T09:45:47.284Z,475
2016-06-01T09:46:47.115Z,440
2016-06-01T09:47:47.259Z,400
2016-06-01T09:48:47.106Z,370
2016-06-01T09:49:47.248Z,355
2016-06-01T09:50:47.064Z,350
2016-06-01T09:51:47.207Z,325
2016-06-01T09:52:47.179Z,305
2016-06-01T09:53:47.165Z,280
2016-06-01T09:54:48.386Z,255
2016-06-01T09:55:47.125Z,260
2016-06-01T09:56:47.111Z,305
2016-06-01T09:57:47.114Z,320
2016-06-01T09:58:47.085Z,305
2016-06-01T09:59:47.056Z,270
2016-06-01T10:00:46.903Z,250
2016-06-01T10:01:46.891Z,250
2016-06-01T10:02:47.019Z,240
2016-06-01T10:03:47.255Z,215
2016-06-01T10:04:46.991Z,230
2016-06-01T10:05:46.980Z,250
2016-06-01T10:06:46.966Z,250
2016-06-01T10:07:46.938Z,245
2016-06-01T10:08:46.784Z,235
2016-06-01T10:09:46.974Z,245
2016-06-01T10:10:46.743Z,245
2016-06-01T10:11:46.730Z,255
2016-06-01T10:12:46.858Z,290
2016-06-01T10:13:46.844Z,305
2016-06-01T10:14:46.878Z,340
2016-06-01T10:15:46.819Z,375
2016-06-01T10:16:46.806Z,420
2016-06-01T10:17:46.620Z,470
2016-06-01T10:18:46.764Z,510
2016-06-01T10:19:46.751Z,515
2016-06-01T10:20:46.723Z,505
2016-06-01T10:21:46.569Z,500
2016-06-01T10:22:46.697Z,585
2016-06-01T10:23:46.700Z,615
2016-06-01T10:24:47.015Z,580
2016-06-01T10:25:46.518Z,590
2016-06-01T10:26:46.645Z,575
2016-06-01T10:27:46.319Z,570
2016-06-01T10:28:46.447Z,490
2016-06-01T10:29:46.622Z,445
2016-06-01T10:30:46.422Z,485
2016-06-01T10:31:46.564Z,450
2016-06-01T10:32:46.645Z,435
2016-06-01T10:33:46.523Z,455
2016-06-01T10:34:46.526Z,485
2016-06-01T10:35:46.341Z,475
2016-06-01T10:36:46.281Z,465
2016-06-01T10:37:46.471Z,465
2016-06-01T10:38:46.459Z,505
2016-06-01T10:39:48.368Z,510
2016-06-01T10:40:46.260Z,460
2016-06-01T10:41:46.999Z,480
2016-06-01T10:42:46.391Z,435
2016-06-01T10:43:46.363Z,445
2016-06-01T10:44:46.349Z,445
2016-06-01T10:45:46.180Z,445
2016-06-01T10:46:46.323Z,440
2016-06-01T10:47:46.155Z,490
2016-06-01T10:48:46.298Z,570
2016-06-01T10:49:46.129Z,565
2016-06-01T10:50:46.257Z,505
2016-06-01T10:51:46.244Z,485
2016-06-01T10:52:46.246Z,490
2016-06-01T10:53:46.420Z,555
2016-06-01T10:54:46.486Z,520
2016-06-01T10:55:46.223Z,480
2016-06-01T10:56:46.179Z,405
2016-06-01T10:57:46.025Z,395
2016-06-01T10:58:45.981Z,420
2016-06-01T10:59:46.125Z,405
2016-06-01T11:00:46.112Z,415
2016-06-01T11:01:45.943Z,450
2016-06-01T11:02:46.116Z,490
2016-06-01T11:03:46.197Z,490
2016-06-01T11:04:46.044Z,455
2016-06-01T11:05:45.875Z,450
2016-06-01T11:06:45.893Z,475
2016-06-01T11:07:46.005Z,535
2016-06-01T11:08:45.992Z,535
2016-06-01T11:09:46.355Z,410
2016-06-01T11:10:46.060Z,320
2016-06-01T11:11:45.954Z,295
2016-06-01T11:12:45.940Z,300
2016-06-01T11:13:45.771Z,375
2016-06-01T11:14:45.587Z,590
2016-06-01T11:15:45.886Z,650
2016-06-01T11:16:45.857Z,650
2016-06-01T11:17:45.563Z,735
2016-06-01T11:18:45.848Z,750
2016-06-01T11:19:45.819Z,740
2016-06-01T11:20:45.681Z,715
2016-06-01T11:21:45.668Z,665
2016-06-01T11:22:45.623Z,605
2016-06-01T11:23:45.767Z,590
2016-06-01T11:24:45.754Z,660
2016-06-01T11:25:45.585Z,710
2016-06-01T11:26:45.697Z,750
2016-06-01T11:27:45.543Z,805
2016-06-01T11:28:45.671Z,850
2016-06-01T11:29:45.674Z,840
2016-06-01T11:30:45.645Z,815
2016-06-01T11:31:45.475Z,850
2016-06-01T11:32:45.463Z,885
2016-06-01T11:33:45.606Z,905
2016-06-01T11:34:45.594Z,910
2016-06-01T11:35:45.565Z,920
2016-06-01T11:36:45.553Z,1005
2016-06-01T11:37:45.383Z,970
2016-06-01T11:38:45.542Z,1000
2016-06-01T11:39:45.889Z,1030
2016-06-01T11:40:45.360Z,1095
2016-06-01T11:41:45.330Z,900
2016-06-01T11:42:45.474Z,935
2016-06-01T11:43:45.461Z,1065
2016-06-01T11:44:45.449Z,855
2016-06-01T11:45:45.421Z,855
2016-06-01T11:46:45.423Z,845
2016-06-01T11:47:45.410Z,790
2016-06-01T11:48:45.475Z,770
2016-06-01T11:49:45.384Z,820
2016-06-01T11:50:45.199Z,725
2016-06-01T11:51:45.358Z,660
2016-06-01T11:52:45.329Z,635
2016-06-01T11:53:45.317Z,620
2016-06-01T11:54:46.772Z,560
2016-06-01T11:55:46.072Z,535
2016-06-01T11:56:45.121Z,525
2016-06-01T11:57:45.249Z,520
2016-06-01T11:58:45.236Z,520
2016-06-01T11:59:45.239Z,515
2016-06-01T12:00:45.211Z,500
2016-06-01T12:01:45.198Z,500
2016-06-01T12:02:45.200Z,535
2016-06-01T12:03:45.219Z,590
2016-06-01T12:04:45.159Z,625
2016-06-01T12:05:44.990Z,650
2016-06-01T12:06:44.976Z,650
2016-06-01T12:07:45.120Z,620
2016-06-01T12:08:45.092Z,590
2016-06-01T12:09:45.500Z,535
2016-06-01T12:10:44.924Z,540
2016-06-01T12:11:44.897Z,540
2016-06-01T12:12:45.102Z,555
2016-06-01T12:13:45.042Z,575
2016-06-01T12:14:44.999Z,575
2016-06-01T12:15:45.001Z,545
2016-06-01T12:16:44.972Z,530
2016-06-01T12:17:45.099Z,515
2016-06-01T12:18:44.946Z,480
2016-06-01T12:19:44.933Z,430
2016-06-01T12:20:44.764Z,445
2016-06-01T12:21:44.923Z,410
2016-06-01T12:22:44.895Z,395
2016-06-01T12:23:44.866Z,345
2016-06-01T12:24:45.759Z,315
2016-06-01T12:25:44.996Z,325
2016-06-01T12:26:44.827Z,390
2016-06-01T12:27:44.829Z,430
2016-06-01T12:28:44.818Z,440
2016-06-01T12:29:44.804Z,430
2016-06-01T12:30:44.775Z,415
2016-06-01T12:31:44.591Z,395
2016-06-01T12:32:44.578Z,390
2016-06-01T12:33:44.564Z,375
2016-06-01T12:34:44.552Z,365
2016-06-01T12:35:44.539Z,365
2016-06-01T12:36:44.666Z,320
2016-06-01T12:37:44.498Z,280
2016-06-01T12:38:44.641Z,285
2016-06-01T12:39:44.331Z,275
2016-06-01T12:40:45.037Z,265
2016-06-01T12:41:44.602Z,245
2016-06-01T12:42:44.417Z,230
2016-06-01T12:43:44.561Z,260
2016-06-01T12:44:44.532Z,260
2016-06-01T12:45:44.518Z,235
2016-06-01T12:46:44.506Z,285
2016-06-01T12:47:44.493Z,375
2016-06-01T12:48:44.496Z,415
2016-06-01T12:49:44.468Z,375
2016-06-01T12:50:44.454Z,370
2016-06-01T12:51:44.441Z,305
2016-06-01T12:52:44.366Z,255
2016-06-01T12:53:44.260Z,255
2016-06-01T12:54:45.152Z,275
2016-06-01T12:55:44.390Z,345
2016-06-01T12:56:44.346Z,405
2016-06-01T12:57:44.192Z,410
2016-06-01T12:58:44.179Z,380
2016-06-01T12:59:44.010Z,365
2016-06-01T13:00:44.137Z,390
2016-06-01T13:01:44.281Z,465
2016-06-01T13:02:44.096Z,555
2016-06-01T13:03:44.239Z,630
2016-06-01T13:04:44.070Z,705
2016-06-01T13:05:44.214Z,745
2016-06-01T13:06:44.231Z,810
2016-06-01T13:07:44.031Z,875
2016-06-01T13:08:44.158Z,895
2016-06-01T13:09:44.833Z,880
2016-06-01T13:10:43.992Z,955
2016-06-01T13:11:44.167Z,980
2016-06-01T13:12:43.794Z,1100
2016-06-01T13:13:44.094Z,1095
2016-06-01T13:14:43.909Z,925
2016-06-01T13:15:43.912Z,770
2016-06-01T13:16:43.727Z,725
2016-06-01T13:17:43.886Z,750
2016-06-01T13:18:44.014Z,760
2016-06-01T13:19:43.985Z,805
2016-06-01T13:20:44.801Z,835
2016-06-01T13:21:43.960Z,850
2016-06-01T13:22:43.947Z,945
2016-06-01T13:23:46.184Z,1070
2016-06-01T13:24:43.827Z,1185
2016-06-01T13:25:45.690Z,1340
2016-06-01T13:26:44.020Z,1510
2016-06-01T13:27:43.881Z,1790
2016-06-01T13:28:43.885Z,1680
2016-06-01T13:29:43.715Z,1390
2016-06-01T13:30:43.703Z,1220
2016-06-01T13:31:43.673Z,1120
2016-06-01T13:32:43.817Z,880
2016-06-01T13:33:43.789Z,865
2016-06-01T13:34:43.791Z,910
2016-06-01T13:35:43.607Z,1050
2016-06-01T13:36:43.750Z,1230
2016-06-01T13:37:43.737Z,1105
2016-06-01T13:38:43.739Z,1110
2016-06-01T13:39:44.305Z,1240
2016-06-01T13:40:43.933Z,1380
2016-06-01T13:41:43.544Z,1380
2016-06-01T13:42:43.672Z,1090
2016-06-01T13:43:43.362Z,900
2016-06-01T13:44:44.022Z,750
2016-06-01T13:45:43.650Z,630
2016-06-01T13:46:43.480Z,570
2016-06-01T13:52:44.856Z,670
2016-06-01T13:53:17.153Z,645
2016-06-01T13:54:18.297Z,545
2016-06-01T13:55:17.361Z,510
2016-06-01T13:56:17.271Z,445
2016-06-01T13:57:17.102Z,375
2016-06-01T14:04:03.730Z,255
2016-06-01T14:04:50.918Z,220
2016-06-01T14:05:50.889Z,205
2016-06-01T14:06:50.877Z,225
2016-06-01T14:07:50.707Z,265
2016-06-01T14:08:50.835Z,295
2016-06-01T14:09:50.932Z,285
2016-06-01T14:10:50.824Z,265
2016-06-01T14:11:50.641Z,285
2016-06-01T14:12:50.783Z,350